sensor_id;sensor_type;location;lat;lon;timestamp;temperature;humidity
74081;SHT31;62438;52.228;6.864;2023-05-10T00:01:36;13.20;99.99
74081;SHT31;62438;52.228;6.864;2023-05-10T00:03:36;13.08;99.99
74081;SHT31;62438;52.228;6.864;2023-05-10T00:05:37;12.99;99.99
74081;SHT31;62438;52.228;6.864;2023-05-10T00:07:37;12.95;99.99
74081;SHT31;62438;52.228;6.864;2023-05-10T00:09:38;12.88;99.99
74081;SHT31;62438;52.228;6.864;2023-05-10T00:11:38;12.88;99.99
74081;SHT31;62438;52.228;6.864;2023-05-10T00:13:39;12.89;99.99
74081;SHT31;62438;52.228;6.864;2023-05-10T00:15:39;12.84;99.99
74081;SHT31;62438;52.228;6.864;2023-05-10T00:17:39;12.82;99.99
74081;SHT31;62438;52.228;6.864;2023-05-10T00:19:40;12.81;99.99
74081;SHT31;62438;52.228;6.864;2023-05-10T00:21:40;12.78;99.99
74081;SHT31;62438;52.228;6.864;2023-05-10T00:23:41;12.80;99.99
74081;SHT31;62438;52.228;6.864;2023-05-10T00:25:41;12.81;99.99
74081;SHT31;62438;52.228;6.864;2023-05-10T00:27:42;12.81;99.99
74081;SHT31;62438;52.228;6.864;2023-05-10T00:29:42;12.81;99.99
74081;SHT31;62438;52.228;6.864;2023-05-10T00:31:43;12.80;99.99
74081;SHT31;62438;52.228;6.864;2023-05-10T00:33:44;12.82;99.99
74081;SHT31;62438;52.228;6.864;2023-05-10T00:35:44;12.77;99.99
74081;SHT31;62438;52.228;6.864;2023-05-10T00:37:45;12.77;99.99
74081;SHT31;62438;52.228;6.864;2023-05-10T00:39:45;12.77;99.99
74081;SHT31;62438;52.228;6.864;2023-05-10T00:41:45;12.74;99.99
74081;SHT31;62438;52.228;6.864;2023-05-10T00:43:46;12.71;99.99
74081;SHT31;62438;52.228;6.864;2023-05-10T00:45:46;12.68;99.99
74081;SHT31;62438;52.228;6.864;2023-05-10T00:47:47;12.74;99.99
74081;SHT31;62438;52.228;6.864;2023-05-10T00:49:47;12.73;99.99
74081;SHT31;62438;52.228;6.864;2023-05-10T00:51:48;12.67;99.99
74081;SHT31;62438;52.228;6.864;2023-05-10T00:53:49;12.61;99.99
74081;SHT31;62438;52.228;6.864;2023-05-10T00:55:51;12.64;99.99
74081;SHT31;62438;52.228;6.864;2023-05-10T00:57:52;12.63;99.99
74081;SHT31;62438;52.228;6.864;2023-05-10T00:59:53;12.64;99.99
74081;SHT31;62438;52.228;6.864;2023-05-10T01:01:53;12.64;99.99
74081;SHT31;62438;52.228;6.864;2023-05-10T01:03:55;12.63;99.99
74081;SHT31;62438;52.228;6.864;2023-05-10T01:05:55;12.61;99.99
74081;SHT31;62438;52.228;6.864;2023-05-10T01:07:56;12.58;99.99
74081;SHT31;62438;52.228;6.864;2023-05-10T01:09:57;12.55;99.99
74081;SHT31;62438;52.228;6.864;2023-05-10T01:11:59;12.54;99.99
74081;SHT31;62438;52.228;6.864;2023-05-10T01:14:00;12.55;99.99
74081;SHT31;62438;52.228;6.864;2023-05-10T01:16:01;12.55;99.99
74081;SHT31;62438;52.228;6.864;2023-05-10T01:18:03;12.55;99.99
74081;SHT31;62438;52.228;6.864;2023-05-10T01:20:05;12.50;99.99
74081;SHT31;62438;52.228;6.864;2023-05-10T01:29:24;12.46;99.99
74081;SHT31;62438;52.228;6.864;2023-05-10T01:33:55;12.41;99.99
74081;SHT31;62438;52.228;6.864;2023-05-10T01:36:08;12.43;99.99
74081;SHT31;62438;52.228;6.864;2023-05-10T01:40:17;12.38;99.99
74081;SHT31;62438;52.228;6.864;2023-05-10T01:42:21;12.41;99.99
74081;SHT31;62438;52.228;6.864;2023-05-10T01:46:41;12.37;99.99
74081;SHT31;62438;52.228;6.864;2023-05-10T01:48:47;12.41;99.99
74081;SHT31;62438;52.228;6.864;2023-05-10T01:50:50;12.36;99.99
74081;SHT31;62438;52.228;6.864;2023-05-10T01:52:53;12.34;99.99
74081;SHT31;62438;52.228;6.864;2023-05-10T01:55:02;12.33;99.99
74081;SHT31;62438;52.228;6.864;2023-05-10T01:57:06;12.32;99.99
74081;SHT31;62438;52.228;6.864;2023-05-10T01:59:15;12.32;99.99
74081;SHT31;62438;52.228;6.864;2023-05-10T02:01:19;12.29;99.99
74081;SHT31;62438;52.228;6.864;2023-05-10T02:03:22;12.38;99.99
74081;SHT31;62438;52.228;6.864;2023-05-10T02:05:24;12.36;99.99
74081;SHT31;62438;52.228;6.864;2023-05-10T02:07:26;12.38;99.99
74081;SHT31;62438;52.228;6.864;2023-05-10T02:09:30;12.38;99.99
74081;SHT31;62438;52.228;6.864;2023-05-10T02:11:32;12.34;99.99
74081;SHT31;62438;52.228;6.864;2023-05-10T02:13:35;12.36;99.99
74081;SHT31;62438;52.228;6.864;2023-05-10T02:15:38;12.34;99.99
74081;SHT31;62438;52.228;6.864;2023-05-10T02:17:42;12.33;99.99
74081;SHT31;62438;52.228;6.864;2023-05-10T02:19:44;12.34;99.99
74081;SHT31;62438;52.228;6.864;2023-05-10T02:21:45;12.32;99.99
74081;SHT31;62438;52.228;6.864;2023-05-10T02:23:46;12.34;99.99
74081;SHT31;62438;52.228;6.864;2023-05-10T02:25:49;12.37;99.99
74081;SHT31;62438;52.228;6.864;2023-05-10T02:27:55;12.34;99.99
74081;SHT31;62438;52.228;6.864;2023-05-10T02:29:56;12.32;99.99
74081;SHT31;62438;52.228;6.864;2023-05-10T02:31:58;12.36;99.99
74081;SHT31;62438;52.228;6.864;2023-05-10T02:33:59;12.33;99.99
74081;SHT31;62438;52.228;6.864;2023-05-10T02:36:02;12.36;99.99
74081;SHT31;62438;52.228;6.864;2023-05-10T02:38:04;12.32;99.99
74081;SHT31;62438;52.228;6.864;2023-05-10T02:40:06;12.32;99.99
74081;SHT31;62438;52.228;6.864;2023-05-10T02:42:07;12.36;99.99
74081;SHT31;62438;52.228;6.864;2023-05-10T02:44:09;12.32;99.99
74081;SHT31;62438;52.228;6.864;2023-05-10T02:46:09;12.40;99.99
74081;SHT31;62438;52.228;6.864;2023-05-10T02:48:10;12.34;99.99
74081;SHT31;62438;52.228;6.864;2023-05-10T02:50:10;12.34;99.99
74081;SHT31;62438;52.228;6.864;2023-05-10T02:52:16;12.34;99.99
74081;SHT31;62438;52.228;6.864;2023-05-10T02:54:21;12.33;99.99
74081;SHT31;62438;52.228;6.864;2023-05-10T02:56:28;12.33;99.99
74081;SHT31;62438;52.228;6.864;2023-05-10T02:58:30;12.34;99.99
74081;SHT31;62438;52.228;6.864;2023-05-10T03:00:31;12.34;99.99
74081;SHT31;62438;52.228;6.864;2023-05-10T03:02:31;12.32;99.99
74081;SHT31;62438;52.228;6.864;2023-05-10T03:04:32;12.30;99.99
74081;SHT31;62438;52.228;6.864;2023-05-10T03:06:32;12.32;99.99
74081;SHT31;62438;52.228;6.864;2023-05-10T03:08:33;12.33;99.99
74081;SHT31;62438;52.228;6.864;2023-05-10T03:10:38;12.34;99.99
74081;SHT31;62438;52.228;6.864;2023-05-10T03:21:37;12.32;99.99
74081;SHT31;62438;52.228;6.864;2023-05-10T03:23:58;12.37;99.99
74081;SHT31;62438;52.228;6.864;2023-05-10T03:26:00;12.38;99.99
74081;SHT31;62438;52.228;6.864;2023-05-10T03:28:01;12.37;99.99
74081;SHT31;62438;52.228;6.864;2023-05-10T03:30:05;12.37;99.99
74081;SHT31;62438;52.228;6.864;2023-05-10T03:32:06;12.40;99.99
74081;SHT31;62438;52.228;6.864;2023-05-10T03:34:07;12.41;99.99
74081;SHT31;62438;52.228;6.864;2023-05-10T03:36:07;12.40;99.99
74081;SHT31;62438;52.228;6.864;2023-05-10T03:38:08;12.40;99.99
74081;SHT31;62438;52.228;6.864;2023-05-10T03:40:08;12.46;99.99
74081;SHT31;62438;52.228;6.864;2023-05-10T03:42:09;12.43;99.99
74081;SHT31;62438;52.228;6.864;2023-05-10T03:44:11;12.46;99.99
74081;SHT31;62438;52.228;6.864;2023-05-10T03:46:12;12.53;99.99
74081;SHT31;62438;52.228;6.864;2023-05-10T03:48:12;12.46;99.99
74081;SHT31;62438;52.228;6.864;2023-05-10T03:50:13;12.46;99.99
74081;SHT31;62438;52.228;6.864;2023-05-10T03:52:14;12.50;99.99
74081;SHT31;62438;52.228;6.864;2023-05-10T03:54:14;12.48;99.99
74081;SHT31;62438;52.228;6.864;2023-05-10T03:56:15;12.53;99.99
74081;SHT31;62438;52.228;6.864;2023-05-10T03:58:15;12.51;99.99
74081;SHT31;62438;52.228;6.864;2023-05-10T04:00:16;12.50;99.99
74081;SHT31;62438;52.228;6.864;2023-05-10T04:02:16;12.53;99.99
74081;SHT31;62438;52.228;6.864;2023-05-10T04:04:17;12.53;99.99
74081;SHT31;62438;52.228;6.864;2023-05-10T04:06:18;12.53;99.99
74081;SHT31;62438;52.228;6.864;2023-05-10T04:08:18;12.55;99.99
74081;SHT31;62438;52.228;6.864;2023-05-10T04:10:19;12.55;99.99
74081;SHT31;62438;52.228;6.864;2023-05-10T04:12:20;12.58;99.99
74081;SHT31;62438;52.228;6.864;2023-05-10T04:14:21;12.57;99.99
74081;SHT31;62438;52.228;6.864;2023-05-10T04:16:21;12.58;99.99
74081;SHT31;62438;52.228;6.864;2023-05-10T04:18:22;12.60;99.99
74081;SHT31;62438;52.228;6.864;2023-05-10T04:20:22;12.60;99.99
74081;SHT31;62438;52.228;6.864;2023-05-10T04:22:23;12.58;99.99
74081;SHT31;62438;52.228;6.864;2023-05-10T04:24:23;12.61;99.99
74081;SHT31;62438;52.228;6.864;2023-05-10T04:26:23;12.64;99.99
74081;SHT31;62438;52.228;6.864;2023-05-10T04:28:25;12.65;99.99
74081;SHT31;62438;52.228;6.864;2023-05-10T04:30:25;12.61;99.99
74081;SHT31;62438;52.228;6.864;2023-05-10T04:32:28;12.65;99.99
74081;SHT31;62438;52.228;6.864;2023-05-10T04:34:29;12.65;99.99
74081;SHT31;62438;52.228;6.864;2023-05-10T04:36:29;12.67;99.99
74081;SHT31;62438;52.228;6.864;2023-05-10T04:38:30;12.68;99.99
74081;SHT31;62438;52.228;6.864;2023-05-10T04:40:30;12.68;99.99
74081;SHT31;62438;52.228;6.864;2023-05-10T04:42:31;12.69;99.99
74081;SHT31;62438;52.228;6.864;2023-05-10T04:44:34;12.73;99.99
74081;SHT31;62438;52.228;6.864;2023-05-10T04:46:34;12.73;99.99
74081;SHT31;62438;52.228;6.864;2023-05-10T04:48:34;12.69;99.99
74081;SHT31;62438;52.228;6.864;2023-05-10T04:50:35;12.74;99.99
74081;SHT31;62438;52.228;6.864;2023-05-10T04:52:35;12.75;99.99
74081;SHT31;62438;52.228;6.864;2023-05-10T04:54:36;12.81;99.99
74081;SHT31;62438;52.228;6.864;2023-05-10T04:56:37;12.81;99.99
74081;SHT31;62438;52.228;6.864;2023-05-10T04:58:37;12.78;99.99
74081;SHT31;62438;52.228;6.864;2023-05-10T05:00:38;12.85;99.99
74081;SHT31;62438;52.228;6.864;2023-05-10T05:02:42;12.84;99.99
74081;SHT31;62438;52.228;6.864;2023-05-10T05:04:42;12.82;99.99
74081;SHT31;62438;52.228;6.864;2023-05-10T05:06:43;12.84;99.99
74081;SHT31;62438;52.228;6.864;2023-05-10T05:08:43;12.88;99.99
74081;SHT31;62438;52.228;6.864;2023-05-10T05:10:44;12.84;99.99
74081;SHT31;62438;52.228;6.864;2023-05-10T05:12:44;12.92;99.99
74081;SHT31;62438;52.228;6.864;2023-05-10T05:14:45;12.92;99.99
74081;SHT31;62438;52.228;6.864;2023-05-10T05:16:45;12.94;99.99
74081;SHT31;62438;52.228;6.864;2023-05-10T05:18:45;12.94;99.99
74081;SHT31;62438;52.228;6.864;2023-05-10T05:20:46;12.94;99.99
74081;SHT31;62438;52.228;6.864;2023-05-10T05:22:46;12.94;99.99
74081;SHT31;62438;52.228;6.864;2023-05-10T05:24:47;12.96;99.99
74081;SHT31;62438;52.228;6.864;2023-05-10T05:26:47;12.99;99.99
74081;SHT31;62438;52.228;6.864;2023-05-10T05:28:48;12.99;99.99
74081;SHT31;62438;52.228;6.864;2023-05-10T05:30:50;13.03;99.99
74081;SHT31;62438;52.228;6.864;2023-05-10T05:32:50;13.03;99.99
74081;SHT31;62438;52.228;6.864;2023-05-10T05:34:51;13.08;99.99
74081;SHT31;62438;52.228;6.864;2023-05-10T05:36:52;13.09;99.99
74081;SHT31;62438;52.228;6.864;2023-05-10T05:38:52;13.13;99.99
74081;SHT31;62438;52.228;6.864;2023-05-10T05:40:53;13.16;99.99
74081;SHT31;62438;52.228;6.864;2023-05-10T05:42:53;13.15;99.99
74081;SHT31;62438;52.228;6.864;2023-05-10T05:44:53;13.26;99.99
74081;SHT31;62438;52.228;6.864;2023-05-10T05:46:54;13.32;99.99
74081;SHT31;62438;52.228;6.864;2023-05-10T05:48:54;13.38;99.99
74081;SHT31;62438;52.228;6.864;2023-05-10T05:50:55;13.38;99.99
74081;SHT31;62438;52.228;6.864;2023-05-10T05:52:59;13.29;99.74
74081;SHT31;62438;52.228;6.864;2023-05-10T05:54:59;13.26;99.87
74081;SHT31;62438;52.228;6.864;2023-05-10T05:57:00;13.27;99.99
74081;SHT31;62438;52.228;6.864;2023-05-10T05:59:01;13.24;99.99
74081;SHT31;62438;52.228;6.864;2023-05-10T06:01:01;13.26;99.99
74081;SHT31;62438;52.228;6.864;2023-05-10T06:03:02;13.29;99.99
74081;SHT31;62438;52.228;6.864;2023-05-10T06:05:02;13.22;99.87
74081;SHT31;62438;52.228;6.864;2023-05-10T06:07:03;13.23;99.99
74081;SHT31;62438;52.228;6.864;2023-05-10T06:09:03;13.24;99.93
74081;SHT31;62438;52.228;6.864;2023-05-10T06:11:03;13.24;99.99
74081;SHT31;62438;52.228;6.864;2023-05-10T06:13:04;13.29;99.99
74081;SHT31;62438;52.228;6.864;2023-05-10T06:15:05;13.24;99.89
74081;SHT31;62438;52.228;6.864;2023-05-10T06:17:06;13.19;99.60
74081;SHT31;62438;52.228;6.864;2023-05-10T06:19:07;13.24;99.98
74081;SHT31;62438;52.228;6.864;2023-05-10T06:21:07;13.16;99.44
74081;SHT31;62438;52.228;6.864;2023-05-10T06:23:08;13.11;99.54
74081;SHT31;62438;52.228;6.864;2023-05-10T06:25:08;13.09;99.78
74081;SHT31;62438;52.228;6.864;2023-05-10T06:27:09;13.03;99.99
74081;SHT31;62438;52.228;6.864;2023-05-10T06:29:10;13.03;99.99
74081;SHT31;62438;52.228;6.864;2023-05-10T06:31:10;13.08;99.99
74081;SHT31;62438;52.228;6.864;2023-05-10T06:33:11;13.06;99.94
74081;SHT31;62438;52.228;6.864;2023-05-10T06:35:12;13.09;99.99
74081;SHT31;62438;52.228;6.864;2023-05-10T06:37:12;13.16;99.99
74081;SHT31;62438;52.228;6.864;2023-05-10T06:39:13;13.19;99.99
74081;SHT31;62438;52.228;6.864;2023-05-10T06:41:14;13.20;99.47
74081;SHT31;62438;52.228;6.864;2023-05-10T06:43:14;13.22;99.68
74081;SHT31;62438;52.228;6.864;2023-05-10T06:45:15;13.23;99.95
74081;SHT31;62438;52.228;6.864;2023-05-10T06:47:15;13.22;99.96
74081;SHT31;62438;52.228;6.864;2023-05-10T06:49:16;13.29;99.36
74081;SHT31;62438;52.228;6.864;2023-05-10T06:51:16;13.27;99.97
74081;SHT31;62438;52.228;6.864;2023-05-10T06:53:17;13.27;99.57
74081;SHT31;62438;52.228;6.864;2023-05-10T06:55:18;13.29;99.51
74081;SHT31;62438;52.228;6.864;2023-05-10T06:57:18;13.26;99.12
74081;SHT31;62438;52.228;6.864;2023-05-10T06:59:19;13.23;99.33
74081;SHT31;62438;52.228;6.864;2023-05-10T07:01:21;13.30;99.60
74081;SHT31;62438;52.228;6.864;2023-05-10T07:03:22;13.32;99.57
74081;SHT31;62438;52.228;6.864;2023-05-10T07:05:22;13.47;99.66
74081;SHT31;62438;52.228;6.864;2023-05-10T07:07:23;13.52;99.05
74081;SHT31;62438;52.228;6.864;2023-05-10T07:09:23;13.63;99.04
74081;SHT31;62438;52.228;6.864;2023-05-10T07:11:24;13.74;99.31
74081;SHT31;62438;52.228;6.864;2023-05-10T07:13:25;13.80;98.46
74081;SHT31;62438;52.228;6.864;2023-05-10T07:15:25;13.88;98.74
74081;SHT31;62438;52.228;6.864;2023-05-10T07:17:26;14.00;98.90
74081;SHT31;62438;52.228;6.864;2023-05-10T07:19:26;14.02;98.19
74081;SHT31;62438;52.228;6.864;2023-05-10T07:21:27;14.04;97.40
74081;SHT31;62438;52.228;6.864;2023-05-10T07:23:28;13.98;97.69
74081;SHT31;62438;52.228;6.864;2023-05-10T07:25:29;14.08;97.36
74081;SHT31;62438;52.228;6.864;2023-05-10T07:27:30;14.12;96.99
74081;SHT31;62438;52.228;6.864;2023-05-10T07:29:31;14.17;96.91
74081;SHT31;62438;52.228;6.864;2023-05-10T07:31:31;14.12;96.46
74081;SHT31;62438;52.228;6.864;2023-05-10T07:33:32;14.04;97.48
74081;SHT31;62438;52.228;6.864;2023-05-10T07:35:32;14.08;97.29
74081;SHT31;62438;52.228;6.864;2023-05-10T07:37:33;14.10;97.39
74081;SHT31;62438;52.228;6.864;2023-05-10T07:39:33;14.18;96.98
74081;SHT31;62438;52.228;6.864;2023-05-10T07:41:34;14.25;97.00
74081;SHT31;62438;52.228;6.864;2023-05-10T07:43:34;14.39;96.69
74081;SHT31;62438;52.228;6.864;2023-05-10T07:45:35;14.42;96.96
74081;SHT31;62438;52.228;6.864;2023-05-10T07:47:35;14.38;94.92
74081;SHT31;62438;52.228;6.864;2023-05-10T07:49:36;14.40;95.45
74081;SHT31;62438;52.228;6.864;2023-05-10T07:51:37;14.36;94.87
74081;SHT31;62438;52.228;6.864;2023-05-10T07:53:38;14.38;95.49
74081;SHT31;62438;52.228;6.864;2023-05-10T07:55:38;14.31;95.24
74081;SHT31;62438;52.228;6.864;2023-05-10T07:57:39;14.19;94.92
74081;SHT31;62438;52.228;6.864;2023-05-10T07:59:39;14.25;94.94
74081;SHT31;62438;52.228;6.864;2023-05-10T08:01:40;14.22;93.48
74081;SHT31;62438;52.228;6.864;2023-05-10T08:03:40;14.24;94.64
74081;SHT31;62438;52.228;6.864;2023-05-10T08:05:41;14.26;94.50
74081;SHT31;62438;52.228;6.864;2023-05-10T08:07:41;14.22;94.98
74081;SHT31;62438;52.228;6.864;2023-05-10T08:09:42;14.24;95.51
74081;SHT31;62438;52.228;6.864;2023-05-10T08:11:43;14.21;95.73
74081;SHT31;62438;52.228;6.864;2023-05-10T08:13:44;14.26;95.16
74081;SHT31;62438;52.228;6.864;2023-05-10T08:15:45;14.22;94.55
74081;SHT31;62438;52.228;6.864;2023-05-10T08:17:46;14.26;95.36
74081;SHT31;62438;52.228;6.864;2023-05-10T08:19:47;14.35;95.48
74081;SHT31;62438;52.228;6.864;2023-05-10T08:21:47;14.26;95.30
74081;SHT31;62438;52.228;6.864;2023-05-10T08:23:48;14.28;95.36
74081;SHT31;62438;52.228;6.864;2023-05-10T08:25:49;14.35;94.30
74081;SHT31;62438;52.228;6.864;2023-05-10T08:27:49;14.39;94.87
74081;SHT31;62438;52.228;6.864;2023-05-10T08:29:50;14.36;93.39
74081;SHT31;62438;52.228;6.864;2023-05-10T08:31:51;14.53;94.27
74081;SHT31;62438;52.228;6.864;2023-05-10T08:33:51;14.53;93.67
74081;SHT31;62438;52.228;6.864;2023-05-10T08:35:52;14.73;94.83
74081;SHT31;62438;52.228;6.864;2023-05-10T08:37:53;14.76;93.77
74081;SHT31;62438;52.228;6.864;2023-05-10T08:39:53;14.69;94.47
74081;SHT31;62438;52.228;6.864;2023-05-10T08:41:54;14.59;93.60
74081;SHT31;62438;52.228;6.864;2023-05-10T08:43:57;14.53;92.64
74081;SHT31;62438;52.228;6.864;2023-05-10T08:46:02;14.50;92.90
74081;SHT31;62438;52.228;6.864;2023-05-10T08:48:09;14.65;94.41
74081;SHT31;62438;52.228;6.864;2023-05-10T08:50:10;14.63;93.86
74081;SHT31;62438;52.228;6.864;2023-05-10T08:52:12;14.75;92.50
74081;SHT31;62438;52.228;6.864;2023-05-10T08:54:15;14.62;92.16
74081;SHT31;62438;52.228;6.864;2023-05-10T08:56:16;14.56;93.89
74081;SHT31;62438;52.228;6.864;2023-05-10T08:58:19;14.60;93.09
74081;SHT31;62438;52.228;6.864;2023-05-10T09:00:20;14.60;93.62
74081;SHT31;62438;52.228;6.864;2023-05-10T09:02:21;14.48;92.98
74081;SHT31;62438;52.228;6.864;2023-05-10T09:04:23;14.55;93.22
74081;SHT31;62438;52.228;6.864;2023-05-10T09:06:24;14.60;93.63
74081;SHT31;62438;52.228;6.864;2023-05-10T09:08:25;14.53;93.07
74081;SHT31;62438;52.228;6.864;2023-05-10T09:10:27;14.42;93.59
74081;SHT31;62438;52.228;6.864;2023-05-10T09:12:28;14.38;93.93
74081;SHT31;62438;52.228;6.864;2023-05-10T09:14:28;14.49;93.97
74081;SHT31;62438;52.228;6.864;2023-05-10T09:16:29;14.59;93.56
74081;SHT31;62438;52.228;6.864;2023-05-10T09:18:29;14.75;93.20
74081;SHT31;62438;52.228;6.864;2023-05-10T09:20:31;14.84;92.70
74081;SHT31;62438;52.228;6.864;2023-05-10T09:22:31;14.79;93.29
74081;SHT31;62438;52.228;6.864;2023-05-10T09:24:31;14.84;92.45
74081;SHT31;62438;52.228;6.864;2023-05-10T09:26:32;15.06;91.72
74081;SHT31;62438;52.228;6.864;2023-05-10T09:28:34;15.10;92.03
74081;SHT31;62438;52.228;6.864;2023-05-10T09:30:35;15.11;91.46
74081;SHT31;62438;52.228;6.864;2023-05-10T09:32:43;15.16;91.50
74081;SHT31;62438;52.228;6.864;2023-05-10T09:34:43;15.23;91.35
74081;SHT31;62438;52.228;6.864;2023-05-10T09:36:56;15.07;90.64
74081;SHT31;62438;52.228;6.864;2023-05-10T09:38:57;15.04;91.27
74081;SHT31;62438;52.228;6.864;2023-05-10T09:40:57;15.20;91.38
74081;SHT31;62438;52.228;6.864;2023-05-10T09:43:06;15.30;91.21
74081;SHT31;62438;52.228;6.864;2023-05-10T09:45:07;15.27;89.85
74081;SHT31;62438;52.228;6.864;2023-05-10T09:47:08;15.23;89.44
74081;SHT31;62438;52.228;6.864;2023-05-10T09:49:14;15.27;90.12
74081;SHT31;62438;52.228;6.864;2023-05-10T09:51:22;15.31;90.51
74081;SHT31;62438;52.228;6.864;2023-05-10T09:53:22;15.24;90.14
74081;SHT31;62438;52.228;6.864;2023-05-10T09:55:24;15.24;89.70
74081;SHT31;62438;52.228;6.864;2023-05-10T09:57:25;15.34;90.52
74081;SHT31;62438;52.228;6.864;2023-05-10T09:59:27;15.26;89.61
74081;SHT31;62438;52.228;6.864;2023-05-10T10:01:28;15.34;89.26
74081;SHT31;62438;52.228;6.864;2023-05-10T10:03:29;15.35;90.11
74081;SHT31;62438;52.228;6.864;2023-05-10T10:05:34;15.18;90.58
74081;SHT31;62438;52.228;6.864;2023-05-10T10:07:35;15.01;90.21
74081;SHT31;62438;52.228;6.864;2023-05-10T10:09:36;15.16;89.91
74081;SHT31;62438;52.228;6.864;2023-05-10T10:11:38;15.28;90.23
74081;SHT31;62438;52.228;6.864;2023-05-10T10:13:38;15.06;90.73
74081;SHT31;62438;52.228;6.864;2023-05-10T10:15:39;14.90;91.24
74081;SHT31;62438;52.228;6.864;2023-05-10T10:17:41;15.08;91.26
74081;SHT31;62438;52.228;6.864;2023-05-10T10:19:42;15.03;89.17
74081;SHT31;62438;52.228;6.864;2023-05-10T10:21:42;14.94;90.26
74081;SHT31;62438;52.228;6.864;2023-05-10T10:23:43;15.16;90.29
74081;SHT31;62438;52.228;6.864;2023-05-10T10:25:44;15.17;89.22
74081;SHT31;62438;52.228;6.864;2023-05-10T10:32:32;15.34;88.49
74081;SHT31;62438;52.228;6.864;2023-05-10T10:34:36;15.49;89.80
74081;SHT31;62438;52.228;6.864;2023-05-10T10:36:44;15.45;90.15
74081;SHT31;62438;52.228;6.864;2023-05-10T10:40:48;15.78;87.62
74081;SHT31;62438;52.228;6.864;2023-05-10T10:42:48;16.00;89.77
74081;SHT31;62438;52.228;6.864;2023-05-10T10:45:12;16.30;87.40
74081;SHT31;62438;52.228;6.864;2023-05-10T10:49:23;16.37;85.44
74081;SHT31;62438;52.228;6.864;2023-05-10T10:51:23;16.26;85.94
74081;SHT31;62438;52.228;6.864;2023-05-10T10:53:27;16.33;85.45
74081;SHT31;62438;52.228;6.864;2023-05-10T10:55:28;16.54;85.06
74081;SHT31;62438;52.228;6.864;2023-05-10T10:57:48;16.40;84.75
74081;SHT31;62438;52.228;6.864;2023-05-10T10:59:49;16.44;85.79
74081;SHT31;62438;52.228;6.864;2023-05-10T11:01:51;16.60;84.21
74081;SHT31;62438;52.228;6.864;2023-05-10T11:06:31;16.17;84.57
74081;SHT31;62438;52.228;6.864;2023-05-10T11:08:34;16.26;84.46
74081;SHT31;62438;52.228;6.864;2023-05-10T11:10:34;16.54;84.75
74081;SHT31;62438;52.228;6.864;2023-05-10T11:13:08;16.35;84.99
74081;SHT31;62438;52.228;6.864;2023-05-10T11:15:10;16.17;85.04
74081;SHT31;62438;52.228;6.864;2023-05-10T11:17:30;15.85;85.82
74081;SHT31;62438;52.228;6.864;2023-05-10T11:19:32;15.96;86.73
74081;SHT31;62438;52.228;6.864;2023-05-10T11:21:34;16.28;86.31
74081;SHT31;62438;52.228;6.864;2023-05-10T11:25:48;16.21;84.82
74081;SHT31;62438;52.228;6.864;2023-05-10T11:27:49;16.53;83.34
74081;SHT31;62438;52.228;6.864;2023-05-10T11:29:53;16.92;82.18
74081;SHT31;62438;52.228;6.864;2023-05-10T11:31:57;16.99;81.11
74081;SHT31;62438;52.228;6.864;2023-05-10T11:33:59;17.03;80.47
74081;SHT31;62438;52.228;6.864;2023-05-10T11:36:01;17.11;80.84
74081;SHT31;62438;52.228;6.864;2023-05-10T11:38:01;16.92;81.10
74081;SHT31;62438;52.228;6.864;2023-05-10T11:40:02;16.84;82.80
74081;SHT31;62438;52.228;6.864;2023-05-10T11:42:03;16.91;80.72
74081;SHT31;62438;52.228;6.864;2023-05-10T11:44:04;17.27;81.44
74081;SHT31;62438;52.228;6.864;2023-05-10T11:46:06;17.51;79.28
74081;SHT31;62438;52.228;6.864;2023-05-10T11:48:07;16.86;80.42
74081;SHT31;62438;52.228;6.864;2023-05-10T11:50:09;17.13;80.19
74081;SHT31;62438;52.228;6.864;2023-05-10T11:52:10;17.11;79.36
74081;SHT31;62438;52.228;6.864;2023-05-10T11:54:13;17.01;79.64
74081;SHT31;62438;52.228;6.864;2023-05-10T11:56:14;16.57;81.86
74081;SHT31;62438;52.228;6.864;2023-05-10T11:58:14;16.43;82.57
74081;SHT31;62438;52.228;6.864;2023-05-10T12:00:15;16.20;82.13
74081;SHT31;62438;52.228;6.864;2023-05-10T12:02:16;16.28;82.90
74081;SHT31;62438;52.228;6.864;2023-05-10T12:04:16;16.35;81.13
74081;SHT31;62438;52.228;6.864;2023-05-10T12:06:18;16.24;82.14
74081;SHT31;62438;52.228;6.864;2023-05-10T12:08:23;16.23;83.27
74081;SHT31;62438;52.228;6.864;2023-05-10T12:10:26;16.44;82.09
74081;SHT31;62438;52.228;6.864;2023-05-10T12:12:26;16.65;82.41
74081;SHT31;62438;52.228;6.864;2023-05-10T12:14:27;16.82;79.79
74081;SHT31;62438;52.228;6.864;2023-05-10T12:16:29;16.58;81.19
74081;SHT31;62438;52.228;6.864;2023-05-10T12:18:29;16.61;81.78
74081;SHT31;62438;52.228;6.864;2023-05-10T12:20:30;16.61;81.29
74081;SHT31;62438;52.228;6.864;2023-05-10T12:22:33;16.74;81.02
74081;SHT31;62438;52.228;6.864;2023-05-10T12:24:36;16.76;81.09
74081;SHT31;62438;52.228;6.864;2023-05-10T12:26:38;16.86;80.91
74081;SHT31;62438;52.228;6.864;2023-05-10T12:28:39;16.86;80.77
74081;SHT31;62438;52.228;6.864;2023-05-10T12:30:39;16.93;81.82
74081;SHT31;62438;52.228;6.864;2023-05-10T12:32:41;16.71;80.25
74081;SHT31;62438;52.228;6.864;2023-05-10T12:34:41;16.71;80.77
74081;SHT31;62438;52.228;6.864;2023-05-10T12:36:42;16.71;81.97
74081;SHT31;62438;52.228;6.864;2023-05-10T12:38:44;16.48;81.26
74081;SHT31;62438;52.228;6.864;2023-05-10T12:40:47;16.24;82.19
74081;SHT31;62438;52.228;6.864;2023-05-10T12:42:48;16.05;79.80
74081;SHT31;62438;52.228;6.864;2023-05-10T12:44:54;16.21;80.56
74081;SHT31;62438;52.228;6.864;2023-05-10T12:46:55;16.23;78.86
74081;SHT31;62438;52.228;6.864;2023-05-10T12:48:55;16.58;79.87
74081;SHT31;62438;52.228;6.864;2023-05-10T12:50:56;17.15;78.07
74081;SHT31;62438;52.228;6.864;2023-05-10T12:52:56;17.34;77.71
74081;SHT31;62438;52.228;6.864;2023-05-10T12:54:57;17.49;77.10
74081;SHT31;62438;52.228;6.864;2023-05-10T12:56:57;17.06;76.94
74081;SHT31;62438;52.228;6.864;2023-05-10T12:58:57;17.19;77.00
74081;SHT31;62438;52.228;6.864;2023-05-10T13:00:59;17.29;76.98
74081;SHT31;62438;52.228;6.864;2023-05-10T13:03:00;17.26;75.77
74081;SHT31;62438;52.228;6.864;2023-05-10T13:05:00;17.29;76.26
74081;SHT31;62438;52.228;6.864;2023-05-10T13:07:01;16.96;76.97
74081;SHT31;62438;52.228;6.864;2023-05-10T13:09:02;17.13;77.99
74081;SHT31;62438;52.228;6.864;2023-05-10T13:11:02;17.57;76.66
74081;SHT31;62438;52.228;6.864;2023-05-10T13:13:03;17.71;75.49
74081;SHT31;62438;52.228;6.864;2023-05-10T13:15:04;17.73;76.53
74081;SHT31;62438;52.228;6.864;2023-05-10T13:17:04;18.01;74.40
74081;SHT31;62438;52.228;6.864;2023-05-10T13:19:05;18.12;75.54
74081;SHT31;62438;52.228;6.864;2023-05-10T13:21:06;18.24;76.34
74081;SHT31;62438;52.228;6.864;2023-05-10T13:23:07;18.04;76.37
74081;SHT31;62438;52.228;6.864;2023-05-10T13:25:08;17.66;74.67